Time;durP1;ratioP1;P1;durP2;ratioP2;P2;SDS_P1;SDS_P2;PMS_P1;PMS_P2;Temp;Humidity;BMP_temperature;BMP_pressure;BME280_temperature;BME280_humidity;BME280_pressure;Samples;Min_cycle;Max_cycle;Signal;HPM_P1;HPM_P2
2020/12/07 00:00:19;;;;;;;19.60;13.10;;;7.30;99.90;;;;;;5051717;28;20190;-62
2020/12/07 00:02:45;;;;;;;20.33;14.83;;;7.30;99.90;;;;;;5049877;28;20377;-62
2020/12/07 00:05:10;;;;;;;21.43;15.00;;;7.30;99.90;;;;;;5050865;28;20192;-62
2020/12/07 00:07:36;;;;;;;20.87;13.83;;;7.30;99.90;;;;;;5050542;28;20257;-61
2020/12/07 00:10:04;;;;;;;16.53;11.60;;;7.30;99.90;;;;;;5051512;28;20621;-62
2020/12/07 00:12:30;;;;;;;19.10;13.63;;;7.30;99.90;;;;;;5048561;28;20240;-61
2020/12/07 00:14:56;;;;;;;24.43;10.63;;;7.30;99.90;;;;;;5047354;28;20185;-61
2020/12/07 00:17:22;;;;;;;17.77;13.63;;;7.20;99.90;;;;;;5051247;28;20205;-62
2020/12/07 00:19:48;;;;;;;21.30;14.13;;;7.20;99.90;;;;;;5050290;28;20169;-62
2020/12/07 00:22:22;;;;;;;15.57;9.77;;;7.20;99.90;;;;;;5051475;28;20192;-62
2020/12/07 00:24:48;;;;;;;18.83;13.30;;;7.20;99.90;;;;;;5050083;28;20384;-61
2020/12/07 00:27:13;;;;;;;22.57;14.53;;;7.20;99.90;;;;;;5049593;28;20261;-61
2020/12/07 00:29:39;;;;;;;20.70;15.17;;;7.20;99.90;;;;;;5051321;28;20173;-62
2020/12/07 00:32:04;;;;;;;17.50;13.63;;;7.20;99.90;;;;;;5044441;28;20190;-61
2020/12/07 00:34:29;;;;;;;21.77;14.93;;;7.20;99.90;;;;;;5031122;28;20185;-62
2020/12/07 00:36:55;;;;;;;22.87;15.77;;;7.20;99.90;;;;;;5047558;28;20209;-62
2020/12/07 00:39:20;;;;;;;20.03;13.80;;;7.20;99.90;;;;;;5050986;28;20633;-62
2020/12/07 00:41:46;;;;;;;21.23;14.70;;;7.20;99.90;;;;;;5050299;28;20193;-61
2020/12/07 00:44:11;;;;;;;21.30;15.00;;;7.20;99.90;;;;;;5049191;28;20177;-61
2020/12/07 00:46:37;;;;;;;19.23;13.20;;;7.20;99.90;;;;;;5043876;28;20610;-61
2020/12/07 00:49:02;;;;;;;22.23;15.77;;;7.20;99.90;;;;;;5042312;28;20473;-61
2020/12/07 00:51:28;;;;;;;15.43;11.97;;;7.20;99.90;;;;;;5044726;28;20222;-60
2020/12/07 00:53:53;;;;;;;15.10;9.83;;;7.20;99.90;;;;;;5030540;28;20166;-60
2020/12/07 00:56:19;;;;;;;21.23;15.30;;;7.20;99.90;;;;;;5030616;28;20205;-61
2020/12/07 00:58:44;;;;;;;15.50;11.27;;;7.30;99.90;;;;;;5046699;28;20553;-61
2020/12/07 01:01:10;;;;;;;17.20;13.43;;;7.30;99.90;;;;;;5048506;28;20202;-62
2020/12/07 01:03:35;;;;;;;13.07;8.87;;;7.30;99.90;;;;;;5048960;28;20181;-60
2020/12/07 01:06:01;;;;;;;18.20;13.50;;;7.30;99.90;;;;;;5050129;28;20548;-60
2020/12/07 01:08:26;;;;;;;13.77;10.57;;;7.30;99.90;;;;;;5049515;28;20200;-60
2020/12/07 01:10:56;;;;;;;17.67;11.93;;;7.30;99.90;;;;;;5049987;28;20197;-60
2020/12/07 01:13:22;;;;;;;18.23;10.90;;;7.40;99.90;;;;;;5049004;28;20200;-60
2020/12/07 01:15:48;;;;;;;13.53;8.70;;;7.40;99.90;;;;;;5049816;28;20197;-60
2020/12/07 01:18:14;;;;;;;14.37;10.60;;;7.50;99.90;;;;;;5049534;28;20185;-60
2020/12/07 01:20:39;;;;;;;18.50;11.30;;;7.60;99.90;;;;;;5032312;28;20802;-60
2020/12/07 01:23:05;;;;;;;17.10;11.07;;;7.70;99.90;;;;;;5049870;28;20197;-61
2020/12/07 01:25:30;;;;;;;16.67;10.43;;;7.70;99.90;;;;;;5050603;28;20177;-61
2020/12/07 01:27:56;;;;;;;17.90;10.90;;;7.70;99.90;;;;;;5047152;28;20213;-60
2020/12/07 01:30:21;;;;;;;11.73;9.07;;;7.60;99.90;;;;;;5030885;28;20194;-58
2020/12/07 01:32:47;;;;;;;10.60;7.47;;;7.60;99.90;;;;;;5050328;28;20247;-59
2020/12/07 01:35:12;;;;;;;16.83;12.40;;;7.60;99.90;;;;;;5048949;28;20535;-59
2020/12/07 01:37:38;;;;;;;16.77;11.40;;;7.60;99.90;;;;;;5049451;28;20169;-58
2020/12/07 01:40:04;;;;;;;21.57;14.93;;;7.50;99.90;;;;;;5049716;28;20603;-58
2020/12/07 01:42:29;;;;;;;18.37;14.07;;;7.50;99.90;;;;;;5049879;28;20170;-58
2020/12/07 01:44:55;;;;;;;21.30;14.20;;;7.40;99.90;;;;;;5050210;28;20206;-60
2020/12/07 01:47:23;;;;;;;17.33;11.37;;;7.40;99.90;;;;;;5049342;28;20711;-60
2020/12/07 01:49:50;;;;;;;17.77;13.93;;;7.30;99.90;;;;;;5049549;28;20174;-66
2020/12/07 01:52:17;;;;;;;17.80;12.77;;;7.30;99.90;;;;;;5089828;22;20245;-70
2020/12/07 01:54:43;;;;;;;19.23;13.23;;;7.20;99.90;;;;;;5073594;28;20200;-69
2020/12/07 01:57:08;;;;;;;18.63;13.83;;;7.20;99.90;;;;;;5074350;28;20320;-69
2020/12/07 01:59:34;;;;;;;21.43;13.70;;;7.00;99.90;;;;;;5066539;28;20181;-69
2020/12/07 10:18:25;;;;;;;19.93;13.83;;;6.40;99.90;;;;;;5102014;27;1367132;-71
2020/12/07 10:20:51;;;;;;;14.30;10.67;;;6.40;99.90;;;;;;5124483;28;20183;-71
2020/12/07 10:23:17;;;;;;;20.70;13.70;;;6.40;99.90;;;;;;5124124;28;20229;-71
2020/12/07 10:25:48;;;;;;;23.80;16.37;;;6.40;99.90;;;;;;5122559;28;20171;-72
2020/12/07 10:28:14;;;;;;;16.43;12.50;;;6.40;99.90;;;;;;5124800;27;20202;-72
2020/12/07 10:30:39;;;;;;;16.40;10.30;;;6.50;99.90;;;;;;5120397;22;20228;-67
2020/12/07 10:33:05;;;;;;;13.63;10.30;;;6.50;99.90;;;;;;5080654;28;20239;-61
2020/12/07 10:35:30;;;;;;;16.00;11.80;;;6.50;99.90;;;;;;5084093;28;20183;-62
2020/12/07 10:37:56;;;;;;;24.43;16.20;;;6.60;99.90;;;;;;5085379;28;20311;-64
2020/12/07 10:40:21;;;;;;;23.97;14.17;;;6.60;99.90;;;;;;5082300;28;20223;-62
2020/12/07 10:42:46;;;;;;;21.00;17.53;;;6.70;99.90;;;;;;5084824;28;20233;-61
2020/12/07 10:45:12;;;;;;;20.37;14.27;;;6.70;99.90;;;;;;5083637;28;20546;-63
2020/12/07 10:47:37;;;;;;;22.80;15.73;;;6.60;99.90;;;;;;5082636;28;20203;-63
2020/12/07 10:50:03;;;;;;;20.43;16.93;;;6.60;99.90;;;;;;5081129;28;20239;-62
2020/12/07 10:52:28;;;;;;;12.07;7.97;;;6.60;99.90;;;;;;5085385;28;20651;-63
2020/12/07 10:54:54;;;;;;;19.87;13.43;;;6.50;99.90;;;;;;5093044;28;20193;-63
2020/12/07 10:57:19;;;;;;;21.90;13.87;;;6.60;99.90;;;;;;5083467;28;20239;-64
2020/12/07 10:59:45;;;;;;;19.03;14.57;;;6.60;99.90;;;;;;5085621;28;20240;-63
2020/12/07 11:02:10;;;;;;;24.47;15.90;;;6.60;99.90;;;;;;5084545;28;20172;-63
2020/12/07 11:04:36;;;;;;;20.90;15.90;;;6.60;99.90;;;;;;5084511;28;20554;-63
2020/12/07 11:07:03;;;;;;;16.07;10.67;;;6.60;99.90;;;;;;5084157;28;20200;-63
2020/12/07 11:09:28;;;;;;;15.50;11.27;;;6.50;99.90;;;;;;5085884;28;20224;-64
2020/12/07 11:12:01;;;;;;;17.43;13.30;;;6.50;99.90;;;;;;5084720;28;20660;-63
2020/12/07 11:14:26;;;;;;;12.20;10.00;;;6.50;99.90;;;;;;5086072;28;20188;-62
2020/12/07 11:16:52;;;;;;;17.10;12.33;;;6.60;99.90;;;;;;5084492;28;20208;-62
2020/12/07 11:19:17;;;;;;;13.57;8.33;;;6.60;99.90;;;;;;5086760;28;20184;-62
2020/12/07 11:21:44;;;;;;;10.43;7.47;;;6.60;99.90;;;;;;5085323;28;20251;-63
2020/12/07 11:24:10;;;;;;;15.20;11.33;;;6.70;99.90;;;;;;5075480;28;20181;-63
2020/12/07 11:26:35;;;;;;;13.17;8.60;;;6.70;99.90;;;;;;5083909;28;20237;-62
2020/12/07 11:29:01;;;;;;;16.33;13.50;;;6.80;99.90;;;;;;5077408;28;20183;-62
2020/12/07 11:31:26;;;;;;;20.00;13.27;;;6.80;99.90;;;;;;5069029;28;20704;-63
2020/12/07 11:33:52;;;;;;;18.33;13.27;;;6.70;99.90;;;;;;5068802;28;20169;-62
2020/12/07 11:36:17;;;;;;;10.40;7.80;;;6.70;99.90;;;;;;5071803;28;20212;-62
2020/12/07 11:44:15;;;;;;;18.20;13.17;;;6.70;99.90;;;;;;5067679;28;20243;-66
2020/12/07 11:46:48;;;;;;;18.83;13.00;;;6.70;99.90;;;;;;5071925;28;20181;-68
2020/12/07 11:49:14;;;;;;;18.50;13.60;;;6.70;99.90;;;;;;5059304;28;20292;-70
2020/12/07 11:51:39;;;;;;;19.40;15.13;;;6.70;99.90;;;;;;5072526;28;20205;-69
2020/12/07 11:54:05;;;;;;;17.53;14.50;;;6.80;99.90;;;;;;5070510;28;20230;-69
2020/12/07 11:56:35;;;;;;;18.70;13.20;;;6.80;99.90;;;;;;5072902;28;20201;-70
2020/12/07 11:59:01;;;;;;;16.83;12.23;;;6.80;99.90;;;;;;5074161;28;20166;-68
2020/12/07 12:01:30;;;;;;;19.87;14.37;;;6.80;99.90;;;;;;5073388;28;20621;-68
2020/12/07 12:03:55;;;;;;;16.83;12.97;;;6.90;99.90;;;;;;5072953;28;20199;-68
2020/12/07 12:06:26;;;;;;;8.97;7.40;;;6.80;99.90;;;;;;5077981;28;20223;-69
2020/12/07 12:08:53;;;;;;;12.13;9.57;;;6.70;99.90;;;;;;5063406;28;20242;-68
2020/12/07 12:11:19;;;;;;;15.17;11.40;;;6.70;99.90;;;;;;5070982;28;20725;-68
2020/12/07 12:13:45;;;;;;;16.23;12.13;;;6.60;99.90;;;;;;5062517;28;20186;-68
2020/12/07 12:16:13;;;;;;;19.17;13.97;;;6.70;99.90;;;;;;5065485;28;20649;-68
2020/12/07 12:18:39;;;;;;;17.37;13.40;;;6.70;99.90;;;;;;5071695;28;20165;-68
2020/12/07 12:21:04;;;;;;;20.73;15.00;;;6.60;99.90;;;;;;5071151;28;20519;-67
2020/12/07 12:23:30;;;;;;;20.50;14.30;;;6.60;99.90;;;;;;5060955;28;20676;-67
2020/12/07 12:25:55;;;;;;;15.87;11.67;;;6.60;99.90;;;;;;5072383;28;20237;-66
2020/12/07 12:28:21;;;;;;;18.83;13.17;;;6.50;99.90;;;;;;5072084;28;20212;-67
2020/12/07 12:30:46;;;;;;;14.07;10.27;;;6.50;99.90;;;;;;5077633;28;20261;-70
2020/12/07 12:33:12;;;;;;;15.60;11.37;;;6.50;99.90;;;;;;5070626;28;20696;-67
2020/12/07 12:35:37;;;;;;;15.07;9.93;;;6.50;99.90;;;;;;5071676;28;20172;-65
2020/12/07 12:38:03;;;;;;;17.17;10.83;;;6.50;99.90;;;;;;5069260;28;20213;-65
2020/12/07 12:40:28;;;;;;;16.47;11.67;;;6.40;99.90;;;;;;5060069;28;20267;-66
2020/12/07 12:42:54;;;;;;;21.80;14.57;;;6.40;99.90;;;;;;5072648;28;20514;-66
2020/12/07 12:45:20;;;;;;;19.97;14.93;;;6.40;99.90;;;;;;5072283;28;20199;-68
2020/12/07 12:47:45;;;;;;;13.03;8.40;;;6.50;99.90;;;;;;5071384;28;20192;-69
2020/12/07 12:50:11;;;;;;;15.60;10.67;;;6.50;99.90;;;;;;5057934;28;20204;-70
2020/12/07 12:52:38;;;;;;;20.73;13.83;;;6.40;99.90;;;;;;5072437;28;20169;-69
2020/12/07 12:55:03;;;;;;;15.73;10.93;;;6.50;99.90;;;;;;5071348;28;20185;-69
2020/12/07 12:57:29;;;;;;;12.67;8.23;;;6.50;99.90;;;;;;5073165;28;20285;-69
2020/12/07 12:59:54;;;;;;;17.37;12.60;;;6.40;99.90;;;;;;5075137;28;20280;-66
2020/12/07 13:02:20;;;;;;;14.00;10.77;;;6.50;99.90;;;;;;5070642;28;20213;-66
2020/12/07 13:04:45;;;;;;;18.73;14.53;;;6.50;99.90;;;;;;5073016;28;20173;-67
2020/12/07 13:07:11;;;;;;;13.83;10.40;;;6.50;99.90;;;;;;5072109;28;20194;-66
2020/12/07 13:09:36;;;;;;;12.33;9.57;;;6.50;99.90;;;;;;5073406;28;20193;-66
2020/12/07 13:12:02;;;;;;;16.43;11.13;;;6.50;99.90;;;;;;5070245;28;20669;-66
2020/12/07 13:14:28;;;;;;;20.17;14.67;;;6.50;99.90;;;;;;5072306;28;20196;-66
2020/12/07 13:19:19;;;;;;;17.13;12.73;;;6.60;99.90;;;;;;5072352;28;20173;-69
2020/12/07 13:21:56;;;;;;;17.83;13.17;;;6.50;99.90;;;;;;5072149;28;20173;-66
2020/12/07 13:24:34;;;;;;;16.57;11.93;;;6.50;99.90;;;;;;5069815;28;20675;-66
2020/12/07 13:29:28;;;;;;;18.57;12.77;;;6.50;99.90;;;;;;5070813;28;20203;-62
2020/12/07 13:31:54;;;;;;;13.50;9.23;;;6.50;99.90;;;;;;5070870;28;20575;-61
2020/12/07 13:34:19;;;;;;;13.27;10.00;;;6.60;99.90;;;;;;5070024;28;20296;-61
2020/12/07 13:36:45;;;;;;;12.63;8.70;;;6.60;99.90;;;;;;5070486;28;20259;-61
2020/12/07 13:39:10;;;;;;;14.07;11.10;;;6.60;99.90;;;;;;5072022;28;20246;-60
2020/12/07 13:41:36;;;;;;;12.90;9.57;;;6.60;99.90;;;;;;5065618;28;20200;-60
2020/12/07 13:44:01;;;;;;;12.57;8.70;;;6.60;99.90;;;;;;5067941;28;20195;-60
2020/12/07 13:46:27;;;;;;;19.47;13.87;;;6.70;99.90;;;;;;5069075;28;20197;-60
2020/12/07 13:48:53;;;;;;;15.00;11.00;;;6.70;99.90;;;;;;5068706;28;20262;-60
2020/12/07 13:51:21;;;;;;;13.40;10.73;;;6.70;99.90;;;;;;5068377;28;20185;-60
2020/12/07 13:53:47;;;;;;;17.97;11.00;;;6.70;99.90;;;;;;5068272;28;20181;-62
2020/12/07 13:56:13;;;;;;;14.13;9.20;;;6.70;99.90;;;;;;5067310;28;20251;-62
2020/12/07 13:58:38;;;;;;;10.93;9.27;;;6.70;99.90;;;;;;5068316;28;20252;-61
2020/12/07 14:01:04;;;;;;;8.43;6.10;;;6.70;99.90;;;;;;5067637;28;20287;-61
2020/12/07 14:03:34;;;;;;;11.73;9.17;;;6.60;99.90;;;;;;5068654;28;20723;-61
2020/12/07 14:05:59;;;;;;;13.27;10.07;;;6.60;99.90;;;;;;5067441;28;20207;-61
2020/12/07 14:08:25;;;;;;;8.53;7.60;;;6.70;99.90;;;;;;5068987;28;20928;-62
2020/12/07 14:10:50;;;;;;;15.40;11.50;;;6.70;99.90;;;;;;5068044;28;20533;-59
2020/12/07 14:13:16;;;;;;;17.37;13.77;;;6.70;99.90;;;;;;5067855;28;20208;-59
2020/12/07 14:15:41;;;;;;;13.47;8.13;;;6.70;99.90;;;;;;5068183;28;20189;-60
2020/12/07 14:18:13;;;;;;;12.60;9.57;;;6.70;99.90;;;;;;5068895;28;20200;-60
2020/12/07 14:23:33;;;;;;;12.23;8.70;;;6.60;99.90;;;;;;5067857;28;20608;-60
2020/12/07 14:29:20;;;;;;;16.23;13.00;;;6.60;99.90;;;;;;5068151;28;20184;-60
2020/12/07 14:35:08;;;;;;;11.57;8.57;;;6.70;99.90;;;;;;5067874;28;20184;-60
2020/12/07 14:40:07;;;;;;;11.00;7.47;;;6.70;99.90;;;;;;5067766;28;20247;-60
2020/12/07 14:42:32;;;;;;;13.00;9.87;;;6.60;99.90;;;;;;5066578;28;20177;-60
2020/12/07 14:44:59;;;;;;;16.33;13.00;;;6.60;99.90;;;;;;5067915;28;20253;-60
2020/12/07 14:47:26;;;;;;;14.43;11.43;;;6.60;99.90;;;;;;5067191;28;20180;-60
2020/12/07 14:50:07;;;;;;;17.50;14.13;;;6.60;99.90;;;;;;5067969;28;20189;-60
2020/12/07 14:52:33;;;;;;;18.30;12.80;;;6.70;99.90;;;;;;5068264;28;20203;-61
2020/12/07 14:55:15;;;;;;;17.00;11.80;;;6.60;99.90;;;;;;5068474;28;20166;-60
2020/12/07 14:58:19;;;;;;;16.93;10.30;;;6.60;99.90;;;;;;5068382;28;20580;-60
2020/12/07 15:05:37;;;;;;;12.37;7.97;;;6.60;99.90;;;;;;5074344;28;20180;-64
2020/12/07 15:08:28;;;;;;;10.57;8.40;;;6.60;99.90;;;;;;5076811;28;20560;-64
2020/12/07 15:13:50;;;;;;;12.60;9.20;;;6.60;99.90;;;;;;5056953;28;20187;-65
2020/12/07 15:16:18;;;;;;;11.93;8.77;;;6.60;99.90;;;;;;5078476;28;20187;-66
2020/12/07 15:18:43;;;;;;;11.83;9.47;;;6.60;99.90;;;;;;5078252;28;20214;-65
2020/12/07 15:21:09;;;;;;;14.87;11.20;;;6.60;99.90;;;;;;5077679;28;20189;-66
2020/12/07 15:23:36;;;;;;;17.23;12.10;;;6.60;99.90;;;;;;5082908;28;20173;-65
2020/12/07 15:26:02;;;;;;;16.97;11.60;;;6.60;99.90;;;;;;5078900;28;20203;-66
2020/12/07 15:28:27;;;;;;;23.23;15.50;;;6.60;99.90;;;;;;5077256;28;20170;-66
2020/12/07 15:30:53;;;;;;;18.80;13.17;;;6.60;99.90;;;;;;5077996;28;20224;-66
2020/12/07 15:33:20;;;;;;;18.93;13.47;;;6.60;99.90;;;;;;5077771;28;20675;-66
2020/12/07 15:35:47;;;;;;;16.63;12.90;;;6.60;99.90;;;;;;5076487;28;20350;-67
2020/12/07 15:38:12;;;;;;;14.10;10.40;;;6.60;99.90;;;;;;5072487;28;20209;-70
2020/12/07 15:40:38;;;;;;;16.73;13.53;;;6.60;99.90;;;;;;5071183;28;20181;-64
2020/12/07 15:43:03;;;;;;;14.67;10.67;;;6.70;99.90;;;;;;5071242;28;20170;-65
2020/12/07 15:45:31;;;;;;;18.40;13.27;;;6.70;99.90;;;;;;5069889;28;20534;-66
2020/12/07 15:47:56;;;;;;;20.20;14.50;;;6.70;99.90;;;;;;5068538;28;20236;-67
2020/12/07 15:50:22;;;;;;;15.33;11.63;;;6.60;99.90;;;;;;5068061;28;20694;-68
2020/12/07 15:52:47;;;;;;;18.23;11.30;;;6.60;99.90;;;;;;5068132;28;20195;-68
2020/12/07 15:55:13;;;;;;;19.73;12.90;;;6.70;99.90;;;;;;5069557;28;20228;-68
2020/12/07 15:57:40;;;;;;;18.33;12.77;;;6.60;99.90;;;;;;5067146;28;20236;-62
2020/12/07 16:00:08;;;;;;;19.13;13.83;;;6.70;99.90;;;;;;5069840;28;20274;-62
2020/12/07 16:02:34;;;;;;;20.60;15.13;;;6.60;99.90;;;;;;5070179;28;20175;-62
2020/12/07 16:05:00;;;;;;;19.40;12.80;;;6.60;99.90;;;;;;5071025;28;20579;-62
2020/12/07 16:07:25;;;;;;;18.97;14.23;;;6.60;99.90;;;;;;5070917;28;20264;-62
2020/12/07 16:09:51;;;;;;;20.00;14.73;;;6.60;99.90;;;;;;5072468;28;20284;-62
2020/12/07 16:12:16;;;;;;;19.60;14.33;;;6.60;99.90;;;;;;5072033;28;20204;-62
2020/12/07 16:14:42;;;;;;;18.37;13.00;;;6.60;99.90;;;;;;5072055;28;20535;-62
2020/12/07 16:17:08;;;;;;;18.17;11.97;;;6.60;99.90;;;;;;5072102;28;20192;-62
2020/12/07 16:19:33;;;;;;;15.80;12.30;;;6.60;99.90;;;;;;5073443;28;20192;-62
2020/12/07 16:21:59;;;;;;;16.47;11.33;;;6.60;99.90;;;;;;5072554;28;20173;-62
2020/12/07 16:24:24;;;;;;;18.47;14.83;;;6.60;99.90;;;;;;5072605;28;20238;-62
2020/12/07 16:26:51;;;;;;;18.93;13.90;;;6.60;99.90;;;;;;5072430;28;20192;-62
2020/12/07 16:29:16;;;;;;;22.33;16.10;;;6.70;99.90;;;;;;5072376;28;20526;-62
2020/12/07 16:31:42;;;;;;;20.93;15.23;;;6.60;99.90;;;;;;5093571;22;20258;-62
2020/12/07 16:34:07;;;;;;;19.77;15.37;;;6.70;99.90;;;;;;5071700;28;20184;-62
2020/12/07 16:36:33;;;;;;;20.87;15.37;;;6.70;99.90;;;;;;5071889;28;20263;-64
2020/12/07 16:38:58;;;;;;;19.93;15.37;;;6.60;99.90;;;;;;5071500;28;20589;-63
2020/12/07 16:41:24;;;;;;;19.40;15.90;;;6.60;99.90;;;;;;5074214;28;20200;-61
2020/12/07 16:43:50;;;;;;;19.13;14.70;;;6.70;99.90;;;;;;5085763;28;20263;-61
2020/12/07 16:46:19;;;;;;;18.73;12.17;;;6.70;99.90;;;;;;5091888;28;20184;-65
2020/12/07 16:48:45;;;;;;;19.53;14.57;;;6.60;99.90;;;;;;5092131;28;20326;-62
2020/12/07 16:51:11;;;;;;;18.33;14.73;;;6.60;99.90;;;;;;5091701;28;20283;-63
2020/12/07 16:53:37;;;;;;;20.80;15.03;;;6.60;99.90;;;;;;5092331;28;20204;-61
2020/12/07 16:56:05;;;;;;;22.90;15.93;;;6.60;99.90;;;;;;5092343;28;20172;-64
2020/12/07 16:58:34;;;;;;;21.67;15.60;;;6.60;99.90;;;;;;5091760;28;20661;-63
2020/12/07 17:01:00;;;;;;;20.33;15.20;;;6.60;99.90;;;;;;5091487;28;20203;-62
2020/12/07 17:03:27;;;;;;;17.80;15.27;;;6.60;99.90;;;;;;5091703;28;20180;-64
2020/12/07 17:05:52;;;;;;;19.00;14.70;;;6.60;99.90;;;;;;5068977;28;20704;-68
2020/12/07 17:08:19;;;;;;;20.63;16.07;;;6.70;99.90;;;;;;5065220;28;20180;-70
2020/12/07 17:10:45;;;;;;;18.50;12.93;;;6.60;99.90;;;;;;5068339;28;20197;-71
2020/12/07 17:13:11;;;;;;;22.23;16.57;;;6.60;99.90;;;;;;5071062;28;20185;-71
2020/12/07 17:15:37;;;;;;;21.00;15.13;;;6.60;99.90;;;;;;5063054;28;20170;-71
2020/12/07 17:18:02;;;;;;;20.30;16.03;;;6.60;99.90;;;;;;5061746;28;20232;-70
2020/12/07 17:20:28;;;;;;;20.70;16.40;;;6.60;99.90;;;;;;5061801;28;20209;-69
2020/12/07 17:22:54;;;;;;;22.53;16.47;;;6.60;99.90;;;;;;5057865;28;20192;-69
2020/12/07 17:25:19;;;;;;;17.27;13.80;;;6.60;99.90;;;;;;5059307;28;20676;-70
2020/12/07 17:27:45;;;;;;;20.70;14.87;;;6.60;99.90;;;;;;5064162;28;20269;-70
2020/12/07 17:30:11;;;;;;;20.43;15.90;;;6.60;99.90;;;;;;5050261;28;20267;-70
2020/12/07 17:32:37;;;;;;;20.03;15.90;;;6.60;99.90;;;;;;5054538;28;20182;-70
2020/12/07 17:35:03;;;;;;;19.73;14.30;;;6.60;99.90;;;;;;5066466;28;20250;-70
2020/12/07 17:37:28;;;;;;;20.10;14.70;;;6.60;99.90;;;;;;5064044;28;20270;-71
2020/12/07 17:39:54;;;;;;;19.07;14.50;;;6.50;99.90;;;;;;5063250;28;20709;-64
2020/12/07 17:42:21;;;;;;;20.23;14.30;;;6.50;99.90;;;;;;5074344;28;20259;-63
2020/12/07 17:44:47;;;;;;;21.77;15.43;;;6.50;99.90;;;;;;5077728;28;20239;-63
2020/12/07 17:47:12;;;;;;;21.70;14.73;;;6.60;99.90;;;;;;5078757;28;20644;-63
2020/12/07 17:49:38;;;;;;;16.00;10.97;;;6.50;99.90;;;;;;5080262;28;20181;-64
2020/12/07 17:52:03;;;;;;;26.10;17.27;;;6.50;99.90;;;;;;5078770;28;20267;-65
2020/12/07 17:54:29;;;;;;;19.60;14.43;;;6.60;99.90;;;;;;5078930;28;20543;-65
2020/12/07 17:56:55;;;;;;;24.90;17.00;;;6.50;99.90;;;;;;5080273;28;20189;-65
2020/12/07 17:59:20;;;;;;;26.83;17.97;;;6.60;99.90;;;;;;5082569;28;20628;-64
2020/12/07 18:01:53;;;;;;;22.30;16.33;;;6.60;99.90;;;;;;5078535;28;20201;-64
2020/12/07 18:04:20;;;;;;;22.30;15.63;;;6.60;99.90;;;;;;5077529;28;20180;-64
2020/12/07 18:06:45;;;;;;;20.73;17.13;;;6.50;99.90;;;;;;5078307;28;20197;-66
2020/12/07 18:09:11;;;;;;;21.47;15.60;;;6.50;99.90;;;;;;5078804;28;20203;-64
2020/12/07 18:11:36;;;;;;;23.60;16.57;;;6.40;99.90;;;;;;5077213;28;20602;-64
2020/12/07 18:14:03;;;;;;;23.10;16.53;;;6.40;99.90;;;;;;5077044;28;20177;-66
2020/12/07 18:16:32;;;;;;;25.57;17.70;;;6.30;99.90;;;;;;5078740;28;20221;-66
2020/12/07 18:18:59;;;;;;;22.30;17.77;;;6.30;99.90;;;;;;5077149;28;20568;-64
2020/12/07 18:21:25;;;;;;;24.70;18.00;;;6.30;99.90;;;;;;5077548;28;20747;-69
2020/12/07 18:23:50;;;;;;;21.03;15.80;;;6.30;99.90;;;;;;5075979;28;20169;-69
2020/12/07 18:26:19;;;;;;;21.77;16.73;;;6.20;99.90;;;;;;5075762;28;20212;-67
2020/12/07 18:28:45;;;;;;;23.70;17.17;;;6.20;99.90;;;;;;5078495;28;20187;-72
2020/12/07 18:31:11;;;;;;;23.13;16.57;;;6.10;99.90;;;;;;5077220;28;20533;-71
2020/12/07 18:33:37;;;;;;;23.43;17.10;;;6.10;99.90;;;;;;5077773;28;20179;-70
2020/12/07 18:36:02;;;;;;;25.37;19.00;;;6.10;99.90;;;;;;5078445;28;20177;-69
2020/12/07 18:38:28;;;;;;;25.10;18.90;;;6.10;99.90;;;;;;5080237;28;20197;-70
2020/12/07 18:40:53;;;;;;;24.53;16.90;;;6.10;99.90;;;;;;5083142;28;20263;-69
2020/12/07 18:43:19;;;;;;;23.30;16.80;;;6.10;99.90;;;;;;5083288;28;20165;-71
2020/12/07 18:45:44;;;;;;;20.27;15.70;;;6.10;99.90;;;;;;5082813;28;20165;-68
2020/12/07 18:48:10;;;;;;;23.03;16.50;;;6.10;99.90;;;;;;5077649;28;20231;-63
2020/12/07 18:50:36;;;;;;;21.33;17.07;;;6.10;99.90;;;;;;5079607;28;20643;-62
2020/12/07 18:53:04;;;;;;;23.60;17.27;;;6.10;99.90;;;;;;5081782;28;20257;-63
2020/12/07 18:55:30;;;;;;;21.53;16.77;;;6.10;99.90;;;;;;5081920;28;20192;-63
2020/12/07 18:57:55;;;;;;;23.83;17.90;;;6.10;99.90;;;;;;5082800;28;20201;-62
2020/12/07 19:00:21;;;;;;;21.90;16.50;;;6.10;99.90;;;;;;5080612;28;20269;-63
2020/12/07 19:02:46;;;;;;;24.77;17.73;;;6.20;99.90;;;;;;5082100;28;20213;-67
2020/12/07 19:05:13;;;;;;;21.83;15.53;;;6.20;99.90;;;;;;5079182;28;20641;-71
2020/12/07 19:07:38;;;;;;;23.67;17.83;;;6.20;99.90;;;;;;5073475;28;20226;-72
2020/12/07 19:10:05;;;;;;;24.17;16.17;;;6.30;99.90;;;;;;5073214;28;20208;-63
2020/12/07 19:12:30;;;;;;;24.63;18.47;;;6.30;99.90;;;;;;5064734;28;20193;-72
2020/12/07 19:14:57;;;;;;;25.17;17.67;;;6.30;99.90;;;;;;5072147;28;20177;-72
2020/12/07 19:17:23;;;;;;;25.43;18.00;;;6.30;99.90;;;;;;5074067;28;20287;-72
2020/12/07 19:19:48;;;;;;;24.47;18.10;;;6.30;99.90;;;;;;5082527;28;20264;-73
2020/12/07 19:22:14;;;;;;;23.40;15.77;;;6.40;99.90;;;;;;5083632;28;20173;-73
2020/12/07 19:24:41;;;;;;;23.20;18.07;;;6.40;99.90;;;;;;5073067;28;20177;-73
2020/12/07 19:27:09;;;;;;;24.30;17.80;;;6.40;99.90;;;;;;5074022;28;20200;-64
2020/12/07 19:29:35;;;;;;;24.23;18.00;;;6.40;99.90;;;;;;5061450;28;20181;-63
2020/12/07 19:32:01;;;;;;;22.33;17.23;;;6.50;99.90;;;;;;5070599;28;20195;-60
2020/12/07 19:34:27;;;;;;;23.63;17.13;;;6.50;99.90;;;;;;5064606;28;20530;-64
2020/12/07 19:36:54;;;;;;;22.10;16.93;;;6.50;99.90;;;;;;5063264;28;20206;-63
2020/12/07 19:39:20;;;;;;;25.67;18.27;;;6.50;99.90;;;;;;5055567;28;20170;-64
2020/12/07 19:41:46;;;;;;;24.87;17.37;;;6.50;99.90;;;;;;5053449;28;20247;-62
2020/12/07 19:44:12;;;;;;;21.13;16.90;;;6.50;99.90;;;;;;5053010;28;20178;-63
2020/12/07 19:46:37;;;;;;;26.23;18.53;;;6.50;99.90;;;;;;5053161;28;20169;-64
2020/12/07 19:49:04;;;;;;;23.43;17.80;;;6.50;99.90;;;;;;5052612;28;20176;-63
2020/12/07 19:51:30;;;;;;;22.80;17.70;;;6.50;99.90;;;;;;5056434;28;20672;-63
2020/12/07 19:53:57;;;;;;;21.93;16.40;;;6.50;99.90;;;;;;5081676;28;20254;-68
2020/12/07 19:56:23;;;;;;;22.90;17.07;;;6.50;99.90;;;;;;5081490;28;20608;-67
2020/12/07 19:58:49;;;;;;;24.93;16.73;;;6.40;99.90;;;;;;5077113;28;20648;-64
2020/12/07 20:01:14;;;;;;;31.93;23.00;;;6.50;99.90;;;;;;5079743;28;20219;-62
2020/12/07 20:03:40;;;;;;;25.33;18.93;;;6.50;99.90;;;;;;5078968;28;20272;-63
2020/12/07 20:06:05;;;;;;;25.23;18.47;;;6.40;99.90;;;;;;5080878;28;20209;-63
2020/12/07 20:08:31;;;;;;;22.00;17.83;;;6.40;99.90;;;;;;5079636;28;20459;-63
2020/12/07 20:10:56;;;;;;;23.47;16.97;;;6.20;99.90;;;;;;5079176;28;20714;-63
2020/12/07 20:13:22;;;;;;;24.70;17.73;;;6.20;99.90;;;;;;5079676;28;20730;-66
2020/12/07 20:15:48;;;;;;;22.10;17.10;;;6.10;99.90;;;;;;5081217;28;20164;-66
2020/12/07 20:18:13;;;;;;;28.17;19.03;;;6.10;99.90;;;;;;5081094;28;20332;-65
2020/12/07 20:20:39;;;;;;;29.00;19.50;;;6.10;99.90;;;;;;5078180;28;20251;-64
2020/12/07 20:23:05;;;;;;;25.13;18.23;;;6.10;99.90;;;;;;5080003;28;20309;-66
2020/12/07 20:25:30;;;;;;;22.73;16.50;;;6.10;99.90;;;;;;5080982;28;20170;-63
2020/12/07 20:27:56;;;;;;;23.80;17.90;;;6.10;99.90;;;;;;5079994;28;20169;-64
2020/12/07 20:30:21;;;;;;;23.77;17.80;;;6.00;99.90;;;;;;5078537;28;20216;-65
2020/12/07 20:32:47;;;;;;;23.53;15.93;;;6.00;99.90;;;;;;5079529;28;20165;-65
2020/12/07 20:35:13;;;;;;;21.93;16.53;;;5.90;99.90;;;;;;5076351;28;20184;-64
2020/12/07 20:37:38;;;;;;;23.73;17.63;;;5.90;99.90;;;;;;5078741;28;20184;-66
2020/12/07 20:40:04;;;;;;;22.73;16.63;;;5.90;99.90;;;;;;5079005;28;20191;-66
2020/12/07 20:42:29;;;;;;;21.93;17.30;;;5.80;99.90;;;;;;5080080;28;20191;-66
2020/12/07 20:44:55;;;;;;;27.20;18.87;;;5.70;99.90;;;;;;5081960;28;20241;-66
2020/12/07 20:47:20;;;;;;;27.67;19.13;;;5.60;99.90;;;;;;5079135;28;20216;-66
2020/12/07 20:49:47;;;;;;;21.23;16.30;;;5.60;99.90;;;;;;5078950;28;20564;-66
2020/12/07 20:52:13;;;;;;;22.33;16.60;;;5.50;99.90;;;;;;5080634;28;20229;-64
2020/12/07 20:54:38;;;;;;;24.60;18.30;;;5.40;99.90;;;;;;5080571;28;20184;-65
2020/12/07 20:57:04;;;;;;;22.93;16.03;;;5.40;99.90;;;;;;5079735;28;20189;-65
2020/12/07 20:59:30;;;;;;;22.13;17.20;;;5.30;99.90;;;;;;5079025;28;20177;-65
2020/12/07 21:01:56;;;;;;;23.20;17.27;;;5.30;99.90;;;;;;5078273;28;20195;-65
2020/12/07 21:04:22;;;;;;;23.30;17.73;;;5.30;99.90;;;;;;5079432;28;20252;-65
2020/12/07 21:06:48;;;;;;;25.10;17.47;;;5.20;99.90;;;;;;5078843;28;20254;-65
2020/12/07 21:09:13;;;;;;;24.20;17.57;;;5.10;99.90;;;;;;5080420;28;20232;-66
2020/12/07 21:11:41;;;;;;;23.30;17.23;;;5.10;99.90;;;;;;5080224;28;20200;-67
2020/12/07 21:14:07;;;;;;;27.73;19.40;;;5.10;99.90;;;;;;5080142;28;20306;-66
2020/12/07 21:16:33;;;;;;;26.83;18.93;;;5.00;99.90;;;;;;5080420;28;20179;-65
2020/12/07 21:18:58;;;;;;;25.63;16.57;;;5.00;99.90;;;;;;5081989;28;20173;-65